createdAt,value
2022-09-29T00:01:06.458Z,98207.03
2022-09-29T00:03:34.951Z,98208.34
2022-09-29T00:06:13.538Z,98214.44
2022-09-29T00:08:41.100Z,98217.03
2022-09-29T00:11:10.178Z,98217.59
2022-09-29T00:13:37.233Z,98221.66
2022-09-29T00:16:04.985Z,98214.97
2022-09-29T00:18:35.571Z,98221.09
2022-09-29T00:21:06.918Z,98225.91
2022-09-29T00:23:37.923Z,98226.13
2022-09-29T00:26:23.092Z,98230.75
2022-09-29T00:28:58.818Z,98225.56
2022-09-29T00:31:28.551Z,98223.56
2022-09-29T00:33:57.450Z,98219.47
2022-09-29T00:36:30.163Z,98219.13
2022-09-29T00:38:58.932Z,98215.25
2022-09-29T00:41:29.466Z,98208.44
2022-09-29T00:44:04.193Z,98217.66
2022-09-29T00:46:52.352Z,98217.47
2022-09-29T00:49:28.469Z,98222.84
2022-09-29T00:52:01.878Z,98222.84
2022-09-29T00:54:37.754Z,98212.88
2022-09-29T00:57:07.530Z,98221.19
2022-09-29T01:00:12.375Z,98216.59
2022-09-29T01:03:02.862Z,98218.66
2022-09-29T01:05:36.966Z,98217.94
2022-09-29T01:08:28.308Z,98217.59
2022-09-29T01:10:57.045Z,98216.09
2022-09-29T01:13:25.145Z,98221.31
2022-09-29T01:15:54.561Z,98223.88
2022-09-29T01:18:23.755Z,98223.69
2022-09-29T01:21:08.156Z,98215.41
2022-09-29T01:23:44.476Z,98215.03
2022-09-29T01:26:39.599Z,98208.94
2022-09-29T01:29:09.541Z,98213.56
2022-09-29T01:31:55.143Z,98215.03
2022-09-29T01:34:49.141Z,98214.31
2022-09-29T01:37:16.396Z,98225.19
2022-09-29T01:40:14.069Z,98208.97
2022-09-29T01:42:52.751Z,98208.97
2022-09-29T01:45:32.678Z,98210.25
2022-09-29T01:48:19.126Z,98208.03
2022-09-29T01:50:51.686Z,98216.91
2022-09-29T01:53:23.130Z,98223.72
2022-09-29T01:55:58.813Z,98220.38
2022-09-29T01:58:54.831Z,98229.81
2022-09-29T02:01:27.694Z,98226.28
2022-09-29T02:04:17.097Z,98225.22
2022-09-29T02:07:08.697Z,98224.09
2022-09-29T02:09:40.584Z,98215.78
2022-09-29T02:12:10.471Z,98223.91
2022-09-29T02:14:42.974Z,98214.84
2022-09-29T02:17:31.574Z,98211.69
2022-09-29T02:20:02.646Z,98209.69
2022-09-29T02:22:29.721Z,98205.59
2022-09-29T02:24:59.304Z,98215.59
2022-09-29T02:27:28.812Z,98221.31
2022-09-29T02:29:59.352Z,98218.34
2022-09-29T02:32:27.016Z,98219.06
2022-09-29T02:34:55.575Z,98226.84
2022-09-29T02:37:43.836Z,98214.09
2022-09-29T02:40:41.669Z,98216.84
2022-09-29T02:43:17.549Z,98213.19
2022-09-29T02:46:49.802Z,98209.69
2022-09-29T02:49:22.771Z,98206.16
2022-09-29T02:52:08.486Z,98206.72
2022-09-29T02:54:48.195Z,98204.88
2022-09-29T02:57:31.007Z,98207.66
2022-09-29T03:00:09.681Z,98209.13
2022-09-29T03:02:38.681Z,98203.00
2022-09-29T03:05:08.854Z,98201.38
2022-09-29T03:07:37.445Z,98206.16
2022-09-29T03:10:05.930Z,98217.97
2022-09-29T03:12:35.829Z,98217.25
2022-09-29T03:15:07.283Z,98220.75
2022-09-29T03:17:34.731Z,98226.09
2022-09-29T03:20:02.139Z,98219.28
2022-09-29T03:22:29.365Z,98214.84
2022-09-29T03:24:56.440Z,98217.09
2022-09-29T03:27:23.701Z,98212.06
2022-09-29T03:29:50.848Z,98224.28
2022-09-29T03:32:18.009Z,98232.41
2022-09-29T03:34:44.944Z,98223.19
2022-09-29T03:37:12.078Z,98226.50
2022-09-29T03:39:39.404Z,98226.66
2022-09-29T03:42:06.418Z,98223.56
2022-09-29T03:44:35.867Z,98213.75
2022-09-29T03:47:05.415Z,98227.41
2022-09-29T03:49:32.507Z,98225.78
2022-09-29T03:51:59.866Z,98222.44
2022-09-29T03:54:29.183Z,98225.03
2022-09-29T03:56:56.228Z,98231.31
2022-09-29T03:59:23.369Z,98225.03
2022-09-29T04:01:50.473Z,98224.09
2022-09-29T04:04:17.463Z,98227.63
2022-09-29T04:06:47.051Z,98221.31
2022-09-29T04:09:14.597Z,98222.44
2022-09-29T04:11:41.729Z,98222.44
2022-09-29T04:14:11.520Z,98230.75
2022-09-29T04:16:41.211Z,98227.97
2022-09-29T04:19:08.268Z,98223.53
2022-09-29T04:21:35.512Z,98222.25
2022-09-29T04:24:02.807Z,98226.50
2022-09-29T04:26:29.935Z,98220.22
2022-09-29T04:28:59.590Z,98229.25
2022-09-29T04:31:29.033Z,98222.44
2022-09-29T04:33:56.080Z,98231.28
2022-09-29T04:36:23.313Z,98226.50
2022-09-29T04:38:51.685Z,98236.09
2022-09-29T04:41:21.015Z,98229.81
2022-09-29T04:43:48.240Z,98229.81
2022-09-29T04:46:15.576Z,98226.31
2022-09-29T04:48:42.557Z,98225.75
2022-09-29T04:51:14.383Z,98217.09
2022-09-29T04:53:43.638Z,98224.84
2022-09-29T04:56:13.932Z,98222.44
2022-09-29T04:58:40.867Z,98226.13
2022-09-29T05:01:10.508Z,98225.41
2022-09-29T05:03:38.084Z,98223.16
2022-09-29T05:06:06.065Z,98225.75
2022-09-29T05:08:33.090Z,98223.72
2022-09-29T05:11:04.751Z,98221.53
2022-09-29T05:13:34.655Z,98224.66
2022-09-29T05:16:03.224Z,98225.03
2022-09-29T05:18:33.160Z,98237.22
2022-09-29T05:21:26.969Z,98244.22
2022-09-29T05:23:55.479Z,98246.97
2022-09-29T05:26:22.598Z,98239.06
2022-09-29T05:28:49.727Z,98242.75
2022-09-29T05:31:18.048Z,98243.88
2022-09-29T05:33:47.828Z,98229.63
2022-09-29T05:36:15.315Z,98237.19
2022-09-29T05:38:42.873Z,98233.16
2022-09-29T05:41:12.451Z,98238.88
2022-09-29T05:43:41.509Z,98241.25
2022-09-29T05:46:10.444Z,98252.53
2022-09-29T05:48:37.608Z,98249.94
2022-09-29T05:51:11.157Z,98268.94
2022-09-29T05:53:41.981Z,98277.25
2022-09-29T05:56:15.551Z,98270.06
2022-09-29T05:58:43.327Z,98278.34
2022-09-29T06:01:21.134Z,98280.00
2022-09-29T06:03:48.711Z,98273.34
2022-09-29T06:06:19.219Z,98277.63
2022-09-29T06:08:47.406Z,98276.34
2022-09-29T06:11:18.171Z,98275.97
2022-09-29T06:13:47.569Z,98275.03
2022-09-29T06:16:16.209Z,98266.34
2022-09-29T06:18:46.161Z,98278.69
2022-09-29T06:21:16.998Z,98281.66
2022-09-29T06:23:46.918Z,98287.19
2022-09-29T06:26:23.659Z,98284.25
2022-09-29T06:28:53.744Z,98280.19
2022-09-29T06:31:24.105Z,98277.44
2022-09-29T06:33:52.011Z,98276.69
2022-09-29T06:36:44.663Z,98275.59
2022-09-29T06:39:14.115Z,98263.06
2022-09-29T06:41:43.459Z,98270.06
2022-09-29T06:44:10.442Z,98272.66
2022-09-29T06:46:37.610Z,98264.88
2022-09-29T06:49:04.829Z,98267.97
2022-09-29T06:51:43.384Z,98277.16
2022-09-29T06:54:21.604Z,98279.16
2022-09-29T06:56:52.797Z,98281.69
2022-09-29T06:59:20.774Z,98285.69
2022-09-29T07:01:50.906Z,98296.38
2022-09-29T07:04:20.857Z,98290.19
2022-09-29T07:06:49.459Z,98280.19
2022-09-29T07:09:16.779Z,98290.09
2022-09-29T07:11:48.773Z,98290.31
2022-09-29T07:14:17.587Z,98287.44
2022-09-29T07:16:45.270Z,98291.84
2022-09-29T07:19:12.341Z,98291.69
2022-09-29T07:21:39.732Z,98290.19
2022-09-29T07:24:08.043Z,98293.50
2022-09-29T07:26:35.618Z,98291.13
2022-09-29T07:29:03.360Z,98293.63
2022-09-29T07:31:36.779Z,98285.16
2022-09-29T07:34:09.620Z,98298.25
2022-09-29T07:36:39.126Z,98309.22
2022-09-29T07:39:06.110Z,98306.13
2022-09-29T07:41:33.333Z,98308.78
2022-09-29T07:44:00.904Z,98316.31
2022-09-29T07:46:28.066Z,98313.69
2022-09-29T07:48:55.319Z,98313.53
2022-09-29T07:51:22.366Z,98318.78
2022-09-29T07:53:49.566Z,98331.13
2022-09-29T07:56:19.174Z,98320.28
2022-09-29T07:58:48.550Z,98329.69
2022-09-29T08:01:17.055Z,98328.13
2022-09-29T08:03:50.638Z,98332.31
2022-09-29T08:06:18.627Z,98336.78
2022-09-29T08:08:58.203Z,98337.94
2022-09-29T08:11:31.561Z,98339.81
2022-09-29T08:14:00.818Z,98343.47
2022-09-29T08:16:30.821Z,98341.22
2022-09-29T08:18:59.740Z,98347.97
2022-09-29T08:21:28.156Z,98355.63
2022-09-29T08:23:55.355Z,98351.25
2022-09-29T08:26:35.878Z,98349.78
2022-09-29T08:29:08.584Z,98354.94
2022-09-29T08:31:38.440Z,98353.16
2022-09-29T08:34:06.893Z,98353.25
2022-09-29T08:36:34.043Z,98364.91
2022-09-29T08:39:01.293Z,98364.84
2022-09-29T08:41:35.616Z,98367.00
2022-09-29T08:44:47.423Z,98376.38
2022-09-29T08:47:46.945Z,98369.47
2022-09-29T08:50:40.612Z,98366.44
2022-09-29T08:53:25.021Z,98364.63
2022-09-29T08:56:05.220Z,98366.41
2022-09-29T08:58:34.155Z,98362.22
2022-09-29T09:01:19.335Z,98366.94
2022-09-29T09:04:03.318Z,98369.41
2022-09-29T09:06:57.735Z,98376.03
2022-09-29T09:09:32.426Z,98379.84
2022-09-29T09:12:09.360Z,98377.94
2022-09-29T09:15:07.783Z,98379.16
2022-09-29T09:17:58.882Z,98388.28
2022-09-29T09:20:36.864Z,98383.81
2022-09-29T09:23:20.505Z,98375.88
2022-09-29T09:26:14.781Z,98372.38
2022-09-29T09:28:55.553Z,98367.13
2022-09-29T09:32:02.310Z,98376.31
2022-09-29T09:34:59.458Z,98376.00
2022-09-29T09:37:41.165Z,98389.53
2022-09-29T09:40:15.114Z,98385.00
2022-09-29T09:42:50.422Z,98378.22
2022-09-29T09:45:34.398Z,98380.59
2022-09-29T09:48:07.173Z,98378.09
2022-09-29T09:50:39.908Z,98386.88
2022-09-29T09:53:31.468Z,98386.16
2022-09-29T09:56:31.320Z,98385.63
2022-09-29T09:59:27.463Z,98394.50
2022-09-29T10:01:57.241Z,98381.41
2022-09-29T10:04:26.151Z,98380.69
2022-09-29T10:06:53.288Z,98374.00
2022-09-29T10:09:20.660Z,98376.00
2022-09-29T10:11:48.832Z,98387.69
2022-09-29T10:14:22.540Z,98391.94
2022-09-29T10:16:56.205Z,98385.91
2022-09-29T10:20:00.375Z,98388.69
2022-09-29T10:22:29.748Z,98378.31
2022-09-29T10:25:09.242Z,98381.25
2022-09-29T10:27:47.641Z,98379.09
2022-09-29T10:30:24.995Z,98368.56
2022-09-29T10:33:00.324Z,98367.38
2022-09-29T10:35:33.320Z,98374.63
2022-09-29T10:38:03.042Z,98381.97
2022-09-29T10:40:30.033Z,98378.28
2022-09-29T10:42:58.112Z,98386.53
2022-09-29T10:45:26.700Z,98390.13
2022-09-29T10:48:00.566Z,98389.00
2022-09-29T10:50:37.477Z,98383.34
2022-09-29T10:53:34.938Z,98386.44
2022-09-29T10:56:10.164Z,98380.91
2022-09-29T10:58:59.984Z,98387.03
2022-09-29T11:01:45.475Z,98380.50
2022-09-29T11:04:33.641Z,98384.06
2022-09-29T11:07:12.942Z,98380.66
2022-09-29T11:09:44.778Z,98382.94
2022-09-29T11:12:32.454Z,98391.84
2022-09-29T11:15:01.463Z,98399.78
2022-09-29T11:17:40.524Z,98388.72
2022-09-29T11:20:15.112Z,98395.53
2022-09-29T11:23:06.841Z,98395.63
2022-09-29T11:25:57.686Z,98389.38
2022-09-29T11:28:44.188Z,98376.50
2022-09-29T11:31:14.216Z,98369.03
2022-09-29T11:34:02.380Z,98363.31
2022-09-29T11:36:44.860Z,98354.47
2022-09-29T11:39:21.321Z,98357.50
2022-09-29T11:42:10.199Z,98356.97
2022-09-29T11:44:55.985Z,98354.97
2022-09-29T11:47:57.110Z,98362.50
2022-09-29T11:50:56.678Z,98364.31
2022-09-29T11:53:28.473Z,98365.47
2022-09-29T11:56:34.988Z,98364.59
2022-09-29T11:59:02.195Z,98352.50
2022-09-29T12:01:34.972Z,98354.72
2022-09-29T12:04:09.772Z,98355.00
2022-09-29T12:06:59.897Z,98363.56
2022-09-29T12:09:56.474Z,98364.84
2022-09-29T12:12:32.217Z,98359.88
2022-09-29T12:15:05.219Z,98373.41
2022-09-29T12:17:39.269Z,98372.06
2022-09-29T12:20:20.197Z,98370.75
2022-09-29T12:22:53.281Z,98363.69
2022-09-29T12:25:25.601Z,98373.69
2022-09-29T12:28:01.925Z,98367.47
2022-09-29T12:30:43.599Z,98359.44
2022-09-29T12:33:40.237Z,98362.44
2022-09-29T12:36:38.821Z,98362.97
2022-09-29T12:39:42.648Z,98366.44
2022-09-29T12:42:34.731Z,98361.31
2022-09-29T12:46:06.390Z,98348.69
2022-09-29T12:48:43.430Z,98356.84
2022-09-29T12:51:22.663Z,98358.47
2022-09-29T12:54:13.896Z,98367.56
2022-09-29T12:56:48.932Z,98360.16
2022-09-29T12:59:31.257Z,98351.34
2022-09-29T13:01:59.183Z,98341.94
2022-09-29T13:04:50.418Z,98335.16
2022-09-29T13:08:22.110Z,98336.81
2022-09-29T13:11:24.687Z,98345.16
2022-09-29T13:13:54.936Z,98345.72
2022-09-29T13:16:50.234Z,98347.13
2022-09-29T13:20:03.677Z,98342.56
2022-09-29T13:22:39.261Z,98340.41
2022-09-29T13:25:25.456Z,98353.50
2022-09-29T13:27:54.071Z,98342.97
2022-09-29T13:30:31.405Z,98343.72
2022-09-29T13:33:07.630Z,98357.53
2022-09-29T13:35:45.486Z,98353.72
2022-09-29T13:38:24.458Z,98369.28
2022-09-29T13:41:12.957Z,98365.44
2022-09-29T13:44:02.066Z,98362.44
2022-09-29T13:46:32.487Z,98368.19
2022-09-29T13:49:08.812Z,98369.66
2022-09-29T13:52:21.920Z,98376.13
2022-09-29T13:54:50.191Z,98377.47
2022-09-29T13:57:25.320Z,98375.56
2022-09-29T13:59:54.436Z,98368.50
2022-09-29T14:02:30.860Z,98367.34
2022-09-29T14:04:57.998Z,98360.84
2022-09-29T14:12:35.291Z,98359.78
2022-09-29T14:15:02.998Z,98366.03
2022-09-29T14:17:37.512Z,98372.19
2022-09-29T14:20:14.970Z,98380.22
2022-09-29T14:22:44.881Z,98378.03
2022-09-29T14:25:12.277Z,98374.28
2022-09-29T14:27:52.032Z,98376.09
2022-09-29T14:30:37.556Z,98364.63
2022-09-29T14:33:14.485Z,98367.13
2022-09-29T14:35:50.058Z,98375.81
2022-09-29T14:38:24.135Z,98373.16
2022-09-29T14:40:59.254Z,98358.19
2022-09-29T14:43:42.984Z,98356.03
2022-09-29T14:46:47.323Z,98361.63
2022-09-29T14:49:58.257Z,98350.91
2022-09-29T14:52:46.987Z,98358.53
2022-09-29T14:55:44.972Z,98360.00
2022-09-29T14:58:18.444Z,98361.94
2022-09-29T15:01:02.583Z,98367.81
2022-09-29T15:03:35.531Z,98380.88
2022-09-29T15:06:12.980Z,98372.78
2022-09-29T15:08:44.178Z,98378.53
2022-09-29T15:11:36.605Z,98371.63
2022-09-29T15:14:35.984Z,98383.78
2022-09-29T15:17:31.895Z,98386.53
2022-09-29T15:20:20.953Z,98392.25
2022-09-29T15:22:57.208Z,98386.34
2022-09-29T15:25:34.258Z,98391.75
2022-09-29T15:28:31.014Z,98404.94
2022-09-29T15:31:04.082Z,98403.34
2022-09-29T15:33:41.286Z,98397.28
2022-09-29T15:36:24.174Z,98407.84
2022-09-29T15:39:04.970Z,98404.03
2022-09-29T15:41:38.963Z,98411.63
2022-09-29T15:44:18.453Z,98409.09
2022-09-29T15:46:52.413Z,98412.44
2022-09-29T15:49:21.524Z,98417.84
2022-09-29T15:52:00.463Z,98420.25
2022-09-29T15:54:34.863Z,98423.47
2022-09-29T15:57:38.024Z,98420.94
2022-09-29T16:00:05.757Z,98433.16
2022-09-29T16:02:43.492Z,98428.44
2022-09-29T16:05:18.657Z,98441.53
2022-09-29T16:08:22.350Z,98436.22
2022-09-29T16:10:55.300Z,98433.09
2022-09-29T16:13:33.547Z,98430.16
2022-09-29T16:16:04.351Z,98424.59
2022-09-29T16:18:44.602Z,98424.75
2022-09-29T16:21:21.011Z,98420.75
2022-09-29T16:24:08.798Z,98423.78
2022-09-29T16:26:48.677Z,98410.78
2022-09-29T16:29:18.152Z,98414.69
2022-09-29T16:31:48.078Z,98405.47
2022-09-29T16:34:21.382Z,98399.41
2022-09-29T16:36:50.397Z,98392.03
2022-09-29T16:39:20.603Z,98387.78
2022-09-29T16:41:53.608Z,98384.09
2022-09-29T16:44:33.424Z,98388.19
2022-09-29T16:47:31.799Z,98388.59
2022-09-29T16:50:05.606Z,98387.38
2022-09-29T16:52:44.012Z,98386.47
2022-09-29T16:55:20.792Z,98388.00
2022-09-29T16:57:56.970Z,98389.09
2022-09-29T17:00:24.635Z,98397.81
2022-09-29T17:02:52.698Z,98401.34
2022-09-29T17:05:21.908Z,98409.69
2022-09-29T17:07:50.293Z,98406.97
2022-09-29T17:10:23.477Z,98418.50
2022-09-29T17:12:50.869Z,98419.97
2022-09-29T17:15:19.011Z,98417.78
2022-09-29T17:17:48.351Z,98417.44
2022-09-29T17:20:19.534Z,98419.69
2022-09-29T17:22:51.987Z,98423.47
2022-09-29T17:25:19.265Z,98422.16
2022-09-29T17:28:05.088Z,98423.81
2022-09-29T17:30:32.371Z,98433.13
2022-09-29T17:33:00.484Z,98430.56
2022-09-29T17:35:37.503Z,98427.44
2022-09-29T17:38:09.262Z,98431.13
2022-09-29T17:41:08.268Z,98430.63
2022-09-29T17:43:35.492Z,98431.75
2022-09-29T17:46:06.832Z,98429.94
2022-09-29T17:48:34.716Z,98442.91
2022-09-29T17:51:06.043Z,98429.81
2022-09-29T17:53:33.432Z,98426.94
2022-09-29T17:56:03.354Z,98419.91
2022-09-29T17:58:30.855Z,98421.81
2022-09-29T18:00:58.825Z,98429.97
2022-09-29T18:03:25.988Z,98426.16
2022-09-29T18:05:56.975Z,98430.09
2022-09-29T18:08:26.513Z,98420.88
2022-09-29T18:11:01.645Z,98424.63
2022-09-29T18:13:34.334Z,98433.38
2022-09-29T18:16:02.319Z,98423.03
2022-09-29T18:18:29.987Z,98423.09
2022-09-29T18:20:57.743Z,98430.13
2022-09-29T18:23:25.400Z,98413.84
2022-09-29T18:25:53.067Z,98418.53
2022-09-29T18:28:20.838Z,98418.34
2022-09-29T18:30:55.080Z,98418.72
2022-09-29T18:33:26.304Z,98435.22
2022-09-29T18:35:54.671Z,98448.72
2022-09-29T18:38:23.385Z,98459.81
2022-09-29T18:40:56.046Z,98460.00
2022-09-29T18:43:27.441Z,98457.22
2022-09-29T18:45:56.271Z,98458.31
2022-09-29T18:48:26.239Z,98461.25
2022-09-29T18:50:56.881Z,98459.81
2022-09-29T18:53:25.186Z,98455.75
2022-09-29T18:56:02.459Z,98464.25
2022-09-29T18:58:30.610Z,98470.19
2022-09-29T19:00:59.199Z,98479.03
2022-09-29T19:03:29.324Z,98484.41
2022-09-29T19:05:57.206Z,98474.97
2022-09-29T19:08:25.277Z,98475.16
2022-09-29T19:11:04.812Z,98474.19
2022-09-29T19:13:32.411Z,98489.00
2022-09-29T19:16:03.491Z,98493.59
2022-09-29T19:18:34.963Z,98494.50
2022-09-29T19:21:02.199Z,98488.22
2022-09-29T19:23:29.596Z,98498.97
2022-09-29T19:26:01.685Z,98496.00
2022-09-29T19:28:29.173Z,98502.84
2022-09-29T19:31:06.684Z,98515.19
2022-09-29T19:33:34.626Z,98518.19
2022-09-29T19:36:05.049Z,98520.41
2022-09-29T19:38:32.695Z,98526.31
2022-09-29T19:41:02.939Z,98519.09
2022-09-29T19:43:31.089Z,98525.72
2022-09-29T19:45:58.512Z,98524.81
2022-09-29T19:48:26.044Z,98516.28
2022-09-29T19:51:16.205Z,98528.69
2022-09-29T19:53:47.284Z,98531.84
2022-09-29T19:56:17.292Z,98529.97
2022-09-29T19:58:45.169Z,98522.75
2022-09-29T20:01:13.020Z,98520.31
2022-09-29T20:03:43.617Z,98510.06
2022-09-29T20:06:11.015Z,98517.13
2022-09-29T20:08:38.265Z,98524.69
2022-09-29T20:11:10.372Z,98527.84
2022-09-29T20:13:38.879Z,98531.50
2022-09-29T20:16:08.684Z,98534.66
2022-09-29T20:18:37.551Z,98547.31
2022-09-29T20:21:09.924Z,98558.03
2022-09-29T20:23:39.636Z,98554.56
2022-09-29T20:26:10.870Z,98560.97
2022-09-29T20:28:38.897Z,98551.72
2022-09-29T20:31:07.769Z,98557.72
2022-09-29T20:33:36.529Z,98559.34
2022-09-29T20:36:04.847Z,98562.84
2022-09-29T20:38:34.554Z,98561.91
2022-09-29T20:41:02.577Z,98559.53
2022-09-29T20:43:29.935Z,98566.97
2022-09-29T20:45:59.721Z,98564.34
2022-09-29T20:48:27.758Z,98558.78
2022-09-29T20:51:00.090Z,98566.16
2022-09-29T20:53:35.379Z,98567.34
2022-09-29T20:56:08.791Z,98564.41
2022-09-29T20:58:36.086Z,98567.50
2022-09-29T21:01:24.417Z,98568.22
2022-09-29T21:03:59.955Z,98569.69
2022-09-29T21:06:28.315Z,98572.41
2022-09-29T21:08:57.636Z,98569.13
2022-09-29T21:11:25.325Z,98573.75
2022-09-29T21:13:57.146Z,98571.72
2022-09-29T21:16:25.773Z,98575.09
2022-09-29T21:18:54.268Z,98570.28
2022-09-29T21:21:21.878Z,98579.38
2022-09-29T21:23:50.639Z,98578.66
2022-09-29T21:26:20.793Z,98573.66
2022-09-29T21:28:53.314Z,98575.88
2022-09-29T21:31:24.468Z,98579.38
2022-09-29T21:33:57.290Z,98568.47
2022-09-29T21:36:26.635Z,98571.81
2022-09-29T21:38:57.725Z,98584.41
2022-09-29T21:41:27.796Z,98575.16
2022-09-29T21:44:00.817Z,98564.03
2022-09-29T21:46:31.810Z,98573.69
2022-09-29T21:49:01.425Z,98571.81
2022-09-29T21:51:38.011Z,98573.13
2022-09-29T21:54:07.588Z,98569.59
2022-09-29T21:56:37.666Z,98577.91
2022-09-29T21:59:04.918Z,98577.91
2022-09-29T22:01:34.586Z,98572.38
2022-09-29T22:04:02.590Z,98572.38
2022-09-29T22:06:34.374Z,98563.47
2022-09-29T22:09:08.961Z,98561.47
2022-09-29T22:11:38.993Z,98562.38
2022-09-29T22:14:07.641Z,98556.66
2022-09-29T22:16:35.770Z,98543.88
2022-09-29T22:21:56.180Z,98553.31
2022-09-29T22:24:24.572Z,98549.66
2022-09-29T22:26:51.687Z,98552.59
2022-09-29T22:29:20.043Z,98557.41
2022-09-29T22:31:47.645Z,98554.44
2022-09-29T22:34:14.738Z,98550.22
2022-09-29T22:36:42.043Z,98555.56
2022-09-29T22:39:10.841Z,98557.78
2022-09-29T22:41:39.862Z,98551.84
2022-09-29T22:44:07.991Z,98547.63
2022-09-29T22:46:35.609Z,98541.31
2022-09-29T22:49:03.784Z,98541.88
2022-09-29T22:51:31.129Z,98550.03
2022-09-29T22:53:58.203Z,98550.78
2022-09-29T22:56:29.132Z,98548.91
2022-09-29T22:59:05.307Z,98556.31
2022-09-29T23:01:36.330Z,98558.88
2022-09-29T23:04:06.208Z,98565.53
2022-09-29T23:06:34.391Z,98552.22
2022-09-29T23:09:01.464Z,98554.06
2022-09-29T23:11:31.393Z,98558.16
2022-09-29T23:14:00.828Z,98554.44
2022-09-29T23:16:28.689Z,98549.28
2022-09-29T23:18:58.586Z,98544.47
2022-09-29T23:21:25.990Z,98538.19
2022-09-29T23:24:00.706Z,98550.56
2022-09-29T23:26:29.745Z,98558.53
2022-09-29T23:28:57.333Z,98553.72
2022-09-29T23:31:24.777Z,98558.16
2022-09-29T23:33:54.971Z,98566.66
2022-09-29T23:36:23.375Z,98570.72
2022-09-29T23:39:09.360Z,98583.31
2022-09-29T23:41:46.747Z,98588.09
2022-09-29T23:44:19.551Z,98588.84
2022-09-29T23:46:49.559Z,98592.53
2022-09-29T23:49:22.478Z,98603.09
2022-09-29T23:51:52.436Z,98601.78
2022-09-29T23:54:21.942Z,98602.53
2022-09-29T23:56:58.423Z,98604.56
2022-09-29T23:59:25.923Z,98599.56
